Time;durP1;ratioP1;P1;durP2;ratioP2;P2;SDS_P1;SDS_P2;PMS_P1;PMS_P2;Temp;Humidity;BMP_temperature;BMP_pressure;BME280_temperature;BME280_humidity;BME280_pressure;Samples;Min_cycle;Max_cycle;Signal;HPM_P1;HPM_P2
2023/12/24 00:01:38;;;;;;;22.35;14.50;;;;;;;6.34;100.00;99423.72;10487766;28;20043;-82
2023/12/24 00:06:42;;;;;;;27.85;14.98;;;;;;;6.49;100.00;99414.47;10462787;28;20056;-84
2023/12/24 00:11:47;;;;;;;11.98;8.63;;;;;;;6.10;100.00;99418.47;10487598;28;20036;-82
2023/12/24 00:16:51;;;;;;;18.60;13.88;;;;;;;6.38;100.00;99418.00;10509324;28;20483;-85
2023/12/24 00:21:54;;;;;;;21.80;14.70;;;;;;;6.32;100.00;99413.16;10461911;28;20045;-84
2023/12/24 00:26:58;;;;;;;18.35;11.00;;;;;;;6.10;100.00;99429.97;10495043;28;20055;-83
2023/12/24 00:32:01;;;;;;;22.60;13.13;;;;;;;6.43;100.00;99422.97;10505134;28;20156;-84
2023/12/24 00:37:30;;;;;;;22.23;10.13;;;;;;;6.26;100.00;99420.81;10473526;28;20060;-83
2023/12/24 00:42:34;;;;;;;22.80;10.63;;;;;;;6.07;100.00;99402.72;10514147;28;20032;-82
2023/12/24 00:47:38;;;;;;;15.07;9.18;;;;;;;5.99;100.00;99447.78;10484872;28;20052;-80
2023/12/24 00:52:41;;;;;;;14.75;8.18;;;;;;;6.20;100.00;99397.25;10460123;28;20049;-80
2023/12/24 00:57:46;;;;;;;11.80;7.82;;;;;;;5.88;100.00;99409.47;10474372;28;20052;-83
2023/12/24 01:02:49;;;;;;;9.30;7.28;;;;;;;6.09;100.00;99409.63;10484221;28;20040;-85
2023/12/24 01:07:52;;;;;;;13.98;9.30;;;;;;;6.36;100.00;99409.28;10472312;28;20040;-84
2023/12/24 01:12:58;;;;;;;11.20;6.85;;;;;;;6.14;100.00;99417.25;10492914;28;20085;-83
2023/12/24 01:18:01;;;;;;;12.13;7.15;;;;;;;6.01;100.00;99417.38;10467378;28;20542;-81
2023/12/24 01:23:05;;;;;;;14.68;8.75;;;;;;;6.10;100.00;99434.47;10471285;28;20846;-83
2023/12/24 01:28:10;;;;;;;17.15;7.90;;;;;;;6.17;100.00;99419.66;10462130;28;20048;-83
2023/12/24 01:33:14;;;;;;;12.05;6.68;;;;;;;6.21;100.00;99407.81;10492326;28;20028;-82
2023/12/24 01:38:17;;;;;;;12.55;7.97;;;;;;;6.10;100.00;99384.66;10485832;28;20079;-82
2023/12/24 01:43:21;;;;;;;10.85;6.28;;;;;;;6.29;100.00;99400.06;10465673;28;20084;-82
2023/12/24 01:48:25;;;;;;;9.40;7.25;;;;;;;6.46;100.00;99396.06;10479536;28;20044;-82
2023/12/24 01:53:28;;;;;;;10.93;6.90;;;;;;;6.17;100.00;99401.00;10485581;28;20064;-82
2023/12/24 01:58:33;;;;;;;13.20;7.20;;;;;;;6.34;100.00;99410.38;10462140;28;20048;-83
2023/12/24 02:03:37;;;;;;;10.02;7.40;;;;;;;6.08;100.00;99407.91;10471904;28;20045;-82
2023/12/24 02:08:41;;;;;;;16.63;10.65;;;;;;;6.38;100.00;99393.16;10459845;28;20053;-83
2023/12/24 02:13:45;;;;;;;18.50;9.93;;;;;;;6.29;100.00;99381.41;10471331;28;20048;-83
2023/12/24 02:18:49;;;;;;;18.50;10.70;;;;;;;6.08;100.00;99356.41;10470904;28;20059;-82
2023/12/24 02:23:53;;;;;;;18.50;10.98;;;;;;;6.17;100.00;99345.88;10456120;28;20047;-82
2023/12/24 02:29:02;;;;;;;17.75;10.07;;;;;;;6.17;100.00;99366.34;10457211;28;20060;-82
2023/12/24 02:34:08;;;;;;;20.77;12.57;;;;;;;6.19;100.00;99351.09;10443894;28;20086;-83
2023/12/24 02:39:13;;;;;;;15.73;8.40;;;;;;;6.24;100.00;99362.22;10456884;28;20045;-80
2023/12/24 02:44:16;;;;;;;17.90;10.60;;;;;;;6.15;100.00;99331.81;10440802;28;20053;-80
2023/12/24 02:49:19;;;;;;;23.10;13.18;;;;;;;6.42;100.00;99325.25;10477671;28;20057;-83
2023/12/24 02:54:23;;;;;;;25.23;15.45;;;;;;;6.55;100.00;99309.94;10467152;28;20057;-81
2023/12/24 02:59:28;;;;;;;16.95;11.77;;;;;;;6.37;100.00;99322.09;10444284;28;20125;-79
2023/12/24 03:04:31;;;;;;;21.13;13.70;;;;;;;6.64;100.00;99303.03;10456248;28;20079;-80
2023/12/24 03:09:35;;;;;;;19.17;11.23;;;;;;;6.68;100.00;99309.78;10458955;28;20078;-81
2023/12/24 03:14:38;;;;;;;20.45;12.65;;;;;;;6.60;100.00;99293.56;10460273;28;20551;-81
2023/12/24 03:19:41;;;;;;;25.25;14.07;;;;;;;6.54;100.00;99291.41;10463070;28;20045;-81
2023/12/24 03:24:46;;;;;;;14.18;6.97;;;;;;;6.61;100.00;99295.28;10447420;28;20049;-81
2023/12/24 03:29:51;;;;;;;13.15;6.63;;;;;;;6.78;100.00;99276.03;10484707;28;20569;-80
2023/12/24 03:34:53;;;;;;;13.60;7.72;;;;;;;6.62;100.00;99288.94;10452246;28;20420;-80
2023/12/24 03:39:58;;;;;;;13.82;8.77;;;;;;;6.62;100.00;99283.59;10457235;28;20418;-81
2023/12/24 03:45:01;;;;;;;13.73;10.38;;;;;;;6.54;100.00;99278.06;10453376;28;20071;-81
2023/12/24 03:50:05;;;;;;;11.35;7.13;;;;;;;6.33;100.00;99281.47;10462004;28;20067;-82
2023/12/24 03:55:09;;;;;;;15.40;7.25;;;;;;;6.35;100.00;99278.69;10453870;28;20063;-84
2023/12/24 04:00:14;;;;;;;12.88;5.30;;;;;;;6.16;100.00;99274.00;10472212;28;20037;-82
2023/12/24 04:05:17;;;;;;;7.85;6.40;;;;;;;6.38;100.00;99295.28;10477922;28;20053;-82
2023/12/24 04:10:22;;;;;;;17.98;9.23;;;;;;;6.40;100.00;99288.03;10469070;28;20439;-83
2023/12/24 04:15:25;;;;;;;13.23;7.72;;;;;;;6.46;100.00;99296.50;10494286;28;20041;-82
2023/12/24 04:20:29;;;;;;;12.52;6.07;;;;;;;6.14;100.00;99289.25;10463167;28;20564;-82
2023/12/24 04:25:34;;;;;;;19.25;11.82;;;;;;;6.46;100.00;99280.50;10456725;28;20051;-82
2023/12/24 04:30:37;;;;;;;11.13;9.32;;;;;;;6.37;100.00;99276.75;10485416;28;20366;-80
2023/12/24 04:35:40;;;;;;;10.38;6.18;;;;;;;6.38;100.00;99276.63;10434908;28;20638;-83
2023/12/24 04:40:45;;;;;;;8.50;6.68;;;;;;;6.32;100.00;99266.47;10467582;28;20091;-81
2023/12/24 04:45:48;;;;;;;14.95;8.02;;;;;;;6.53;100.00;99255.88;10474198;28;20060;-82
2023/12/24 04:50:51;;;;;;;15.88;9.32;;;;;;;6.31;100.00;99263.94;10460124;28;20147;-84
2023/12/24 04:55:56;;;;;;;10.90;7.75;;;;;;;6.17;100.00;99262.34;10462285;28;20049;-82
2023/12/24 05:00:59;;;;;;;16.17;8.68;;;;;;;6.53;100.00;99239.03;10470768;28;20044;-82
2023/12/24 05:06:02;;;;;;;15.30;11.30;;;;;;;6.85;100.00;99241.66;10460475;28;20049;-80
2023/12/24 05:11:08;;;;;;;10.98;7.75;;;;;;;6.59;100.00;99239.34;10475997;28;20052;-82
2023/12/24 05:16:11;;;;;;;12.27;7.47;;;;;;;6.56;100.00;99234.28;10501838;28;20056;-82
2023/12/24 05:21:14;;;;;;;11.27;7.70;;;;;;;6.53;100.00;99231.00;10481742;28;20056;-82
2023/12/24 05:26:19;;;;;;;10.55;7.25;;;;;;;6.52;100.00;99216.81;10478519;28;20484;-82
2023/12/24 05:31:22;;;;;;;6.65;5.80;;;;;;;6.65;100.00;99210.47;10474270;28;20476;-82
2023/12/24 05:36:25;;;;;;;10.75;5.05;;;;;;;6.69;100.00;99212.75;10470035;28;20514;-82
2023/12/24 05:41:29;;;;;;;10.90;6.68;;;;;;;6.75;100.00;99198.06;10479086;28;20408;-82
2023/12/24 05:46:35;;;;;;;5.72;4.28;;;;;;;6.75;100.00;99206.91;10478001;28;20049;-81
2023/12/24 05:51:38;;;;;;;7.53;4.32;;;;;;;6.54;100.00;99195.34;10474611;28;20036;-84
2023/12/24 05:56:42;;;;;;;7.32;4.22;;;;;;;6.73;100.00;99192.00;10470130;28;20041;-82
2023/12/24 06:01:45;;;;;;;6.32;5.55;;;;;;;6.72;100.00;99175.13;10475475;28;20407;-82
2023/12/24 06:06:48;;;;;;;6.95;6.22;;;;;;;6.74;100.00;99172.31;10475773;28;20492;-84
2023/12/24 06:11:52;;;;;;;5.05;3.90;;;;;;;6.91;100.00;99165.59;10468463;28;20064;-82
2023/12/24 06:16:57;;;;;;;5.95;5.25;;;;;;;6.81;100.00;99174.34;10477059;28;20086;-83
2023/12/24 06:22:02;;;;;;;8.73;5.95;;;;;;;7.12;100.00;99176.25;10433738;28;20048;-82
2023/12/24 06:27:07;;;;;;;3.95;3.55;;;;;;;7.06;100.00;99178.47;10474605;28;20083;-83
2023/12/24 06:32:10;;;;;;;5.03;4.15;;;;;;;7.09;100.00;99179.19;10489730;28;20037;-82
2023/12/24 06:37:13;;;;;;;3.58;3.28;;;;;;;6.91;100.00;99185.13;10473343;28;20107;-83
2023/12/24 06:42:17;;;;;;;3.70;3.08;;;;;;;6.94;100.00;99182.22;10479245;28;20131;-82
2023/12/24 06:47:20;;;;;;;4.15;3.75;;;;;;;7.12;100.00;99186.94;10484274;28;20559;-83
2023/12/24 06:52:23;;;;;;;2.95;2.63;;;;;;;7.16;100.00;99180.34;10476881;28;20040;-83
2023/12/24 06:57:27;;;;;;;2.72;2.53;;;;;;;7.13;100.00;99185.97;10480309;28;20051;-82
2023/12/24 07:02:30;;;;;;;3.03;2.78;;;;;;;7.26;100.00;99170.56;10490252;28;20048;-84
2023/12/24 07:07:33;;;;;;;2.80;2.13;;;;;;;7.19;100.00;99172.94;10471789;28;20037;-84
2023/12/24 07:12:37;;;;;;;2.60;2.40;;;;;;;7.24;100.00;99161.84;10463920;28;20052;-81
2023/12/24 07:17:40;;;;;;;1.98;1.88;;;;;;;7.35;100.00;99153.78;10474794;28;20049;-81
2023/12/24 07:22:44;;;;;;;1.98;1.88;;;;;;;7.19;100.00;99151.56;10471914;28;20083;-82
2023/12/24 07:27:48;;;;;;;2.33;2.13;;;;;;;7.22;100.00;99153.97;10505808;28;20040;-84
2023/12/24 07:32:51;;;;;;;1.70;1.60;;;;;;;6.94;100.00;99184.88;10508892;28;20069;-84
2023/12/24 07:37:54;;;;;;;1.77;1.60;;;;;;;7.29;100.00;99170.31;10480344;28;20040;-82
2023/12/24 07:42:59;;;;;;;2.20;2.10;;;;;;;7.35;100.00;99136.88;10478343;28;20040;-83
2023/12/24 07:48:02;;;;;;;1.38;1.33;;;;;;;7.29;100.00;99124.91;10483401;28;20514;-84
2023/12/24 07:53:05;;;;;;;1.70;1.60;;;;;;;7.38;100.00;99117.94;10491191;28;20045;-83
2023/12/24 07:58:09;;;;;;;1.75;1.65;;;;;;;7.36;100.00;99136.75;10477945;28;20276;-83
2023/12/24 08:03:13;;;;;;;2.85;2.50;;;;;;;7.50;100.00;99131.03;10477786;28;20510;-83
2023/12/24 08:08:16;;;;;;;1.90;1.80;;;;;;;7.44;100.00;99138.75;10450062;28;20106;-82
2023/12/24 08:13:21;;;;;;;2.40;2.17;;;;;;;7.48;100.00;99149.00;10475021;28;20067;-82
2023/12/24 08:18:24;;;;;;;1.90;1.80;;;;;;;7.19;100.00;99135.56;10462744;28;20076;-81
2023/12/24 08:23:27;;;;;;;2.05;1.95;;;;;;;7.27;100.00;99127.72;10483840;28;20041;-82
2023/12/24 08:28:32;;;;;;;1.75;1.65;;;;;;;7.37;100.00;99129.56;10470258;28;20048;-83
2023/12/24 08:33:35;;;;;;;2.20;2.05;;;;;;;7.45;100.00;99132.41;10484298;28;20064;-81
2023/12/24 08:38:38;;;;;;;2.28;2.17;;;;;;;7.52;100.00;99111.38;10414096;28;20076;-82
2023/12/24 08:43:42;;;;;;;2.95;2.75;;;;;;;7.60;100.00;99127.56;10494984;28;20078;-83
2023/12/24 08:48:45;;;;;;;1.63;1.52;;;;;;;7.48;100.00;99124.97;10468450;28;20147;-82
2023/12/24 08:53:49;;;;;;;3.15;2.30;;;;;;;7.61;100.00;99130.09;10494153;28;20064;-82
2023/12/24 08:58:53;;;;;;;2.80;2.60;;;;;;;7.65;100.00;99123.50;10478355;28;20072;-81
2023/12/24 09:03:56;;;;;;;2.85;1.88;;;;;;;7.62;100.00;99160.31;10466071;28;20057;-81
2023/12/24 09:08:59;;;;;;;3.92;2.42;;;;;;;7.68;100.00;99123.22;10492178;28;20166;-81
2023/12/24 09:14:03;;;;;;;3.72;3.42;;;;;;;7.80;100.00;99123.94;10481401;28;20481;-81
2023/12/24 09:19:06;;;;;;;5.57;3.00;;;;;;;7.56;100.00;99099.41;10464988;28;20057;-82
2023/12/24 09:24:09;;;;;;;2.58;2.40;;;;;;;7.68;100.00;99103.69;10475218;28;20052;-81
2023/12/24 09:29:21;;;;;;;3.70;3.47;;;;;;;7.89;100.00;99095.53;10490305;28;20120;-81
2023/12/24 09:34:24;;;;;;;2.92;2.72;;;;;;;7.80;100.00;99115.09;10493165;28;20040;-82
2023/12/24 09:39:27;;;;;;;3.38;3.17;;;;;;;7.78;100.00;99135.75;10511755;28;20056;-81
2023/12/24 09:44:31;;;;;;;2.75;2.55;;;;;;;7.68;100.00;99136.59;10497623;28;20045;-80
2023/12/24 09:49:34;;;;;;;2.97;2.63;;;;;;;7.64;100.00;99129.81;10465229;28;20055;-80
2023/12/24 09:54:38;;;;;;;3.08;2.88;;;;;;;7.85;100.00;99112.84;10480491;28;20040;-82
2023/12/24 09:59:42;;;;;;;3.25;2.95;;;;;;;7.81;100.00;99127.47;10473571;28;20065;-82
2023/12/24 10:04:45;;;;;;;3.70;3.47;;;;;;;7.74;100.00;99119.16;10463864;28;20035;-82
2023/12/24 10:09:50;;;;;;;3.40;3.10;;;;;;;7.82;100.00;99115.81;10479346;28;20052;-82
2023/12/24 10:14:58;;;;;;;4.22;3.92;;;;;;;7.73;100.00;99109.44;10459420;28;20049;-82
2023/12/24 10:20:04;;;;;;;4.10;3.80;;;;;;;7.85;100.00;99136.91;10462214;28;20051;-80
2023/12/24 10:25:09;;;;;;;3.90;3.60;;;;;;;7.99;100.00;99139.19;10473751;28;20041;-82
2023/12/24 10:30:16;;;;;;;3.58;3.35;;;;;;;8.02;100.00;99116.69;10474660;28;20047;-82
2023/12/24 10:35:22;;;;;;;4.30;4.00;;;;;;;8.20;100.00;99107.00;10449193;28;20045;-82
2023/12/24 10:40:25;;;;;;;4.30;3.97;;;;;;;8.07;100.00;99098.38;10473853;28;20516;-83
2023/12/24 10:45:30;;;;;;;4.53;3.55;;;;;;;8.04;100.00;99063.91;10449308;28;20041;-80
2023/12/24 10:50:33;;;;;;;3.63;3.33;;;;;;;8.19;100.00;99086.56;10470379;28;20067;-81
2023/12/24 10:55:39;;;;;;;5.10;4.60;;;;;;;8.36;100.00;99087.66;10465843;28;20076;-81
2023/12/24 11:00:43;;;;;;;2.88;2.67;;;;;;;8.08;100.00;99076.84;10460468;28;20045;-82
2023/12/24 11:05:50;;;;;;;3.30;3.05;;;;;;;8.06;100.00;99084.16;10465235;28;20044;-82
2023/12/24 11:10:54;;;;;;;4.47;3.63;;;;;;;8.16;100.00;99100.22;10470218;28;20075;-81
2023/12/24 11:15:59;;;;;;;3.75;3.45;;;;;;;8.07;100.00;99077.00;10461786;28;20045;-81
2023/12/24 11:21:02;;;;;;;5.38;4.97;;;;;;;8.13;100.00;99095.16;10467967;28;20052;-80
2023/12/24 11:26:37;;;;;;;4.85;4.45;;;;;;;8.11;100.00;99073.03;10485092;28;20040;-81
2023/12/24 11:31:41;;;;;;;5.43;4.93;;;;;;;8.22;100.00;99066.69;10460939;28;20048;-82
2023/12/24 11:37:02;;;;;;;5.82;3.85;;;;;;;8.14;100.00;99073.59;10473968;28;20048;-82
2023/12/24 11:42:06;;;;;;;5.43;4.93;;;;;;;8.30;100.00;99061.50;10479218;28;20051;-81
2023/12/24 11:47:18;;;;;;;6.90;5.20;;;;;;;7.88;100.00;99045.75;10460596;28;20045;-80
2023/12/24 11:52:22;;;;;;;5.65;5.18;;;;;;;8.22;100.00;99037.28;10457769;28;20056;-81
2023/12/24 11:57:25;;;;;;;4.75;4.38;;;;;;;8.26;100.00;99022.66;10446891;28;20057;-82
2023/12/24 12:02:30;;;;;;;4.38;4.07;;;;;;;8.21;100.00;99031.09;10482577;28;20052;-82
2023/12/24 12:07:33;;;;;;;4.13;3.78;;;;;;;8.18;100.00;99010.81;10483350;28;20451;-82
2023/12/24 12:12:36;;;;;;;5.55;5.05;;;;;;;8.28;100.00;99028.69;10454890;28;20045;-82
2023/12/24 12:17:40;;;;;;;5.13;4.15;;;;;;;8.40;100.00;99025.72;10451253;28;20048;-83
2023/12/24 12:22:43;;;;;;;3.83;3.53;;;;;;;8.13;100.00;99017.59;10487718;28;20052;-80
2023/12/24 12:27:46;;;;;;;4.88;4.40;;;;;;;8.46;100.00;99010.09;10463105;28;20167;-80
2023/12/24 12:32:52;;;;;;;4.15;3.58;;;;;;;8.38;100.00;98997.41;10463998;28;20057;-80
2023/12/24 12:37:56;;;;;;;5.45;4.90;;;;;;;8.43;100.00;99032.63;10480689;28;20444;-81
2023/12/24 12:42:59;;;;;;;5.78;5.28;;;;;;;8.67;100.00;98983.16;10488693;28;20047;-82
2023/12/24 12:48:04;;;;;;;3.35;2.97;;;;;;;8.36;100.00;98976.16;10473204;28;20092;-82
2023/12/24 12:53:07;;;;;;;3.90;3.50;;;;;;;8.38;100.00;98978.69;10463170;28;20041;-81
2023/12/24 12:58:13;;;;;;;7.90;6.25;;;;;;;8.76;100.00;98980.44;10459510;28;20052;-81
2023/12/24 13:03:18;;;;;;;6.72;6.07;;;;;;;8.56;100.00;98989.53;10487899;28;20119;-81
2023/12/24 13:08:21;;;;;;;6.00;5.15;;;;;;;8.71;100.00;98984.53;10465000;28;20098;-81
2023/12/24 13:13:25;;;;;;;6.00;5.32;;;;;;;8.53;100.00;98984.44;10459113;28;20123;-81
2023/12/24 13:18:29;;;;;;;8.00;7.20;;;;;;;8.52;100.00;98982.75;10460403;28;20049;-79
2023/12/24 13:23:33;;;;;;;10.88;9.02;;;;;;;8.75;100.00;98968.03;10469481;28;20063;-82
2023/12/24 13:28:36;;;;;;;9.43;6.43;;;;;;;8.68;100.00;98968.78;10471593;28;20393;-81
2023/12/24 13:33:44;;;;;;;7.32;6.32;;;;;;;8.80;100.00;98964.91;10466499;28;20124;-83
2023/12/24 13:38:47;;;;;;;7.30;6.20;;;;;;;8.64;100.00;98930.75;10474909;28;20048;-82
2023/12/24 13:43:50;;;;;;;5.72;5.20;;;;;;;8.57;100.00;98919.78;10495692;28;20140;-81
2023/12/24 13:48:55;;;;;;;5.45;4.80;;;;;;;8.70;100.00;98886.50;10477338;28;20048;-82
2023/12/24 13:53:59;;;;;;;7.20;5.57;;;;;;;8.79;100.00;98896.28;10492463;28;20040;-83
2023/12/24 13:59:03;;;;;;;6.13;5.03;;;;;;;8.77;100.00;98900.94;10454884;28;20127;-83
2023/12/24 14:04:10;;;;;;;5.80;5.28;;;;;;;8.73;100.00;98903.09;10459493;28;20080;-83
2023/12/24 14:09:13;;;;;;;10.13;8.82;;;;;;;8.76;100.00;98899.28;10460518;28;20598;-83
2023/12/24 14:14:16;;;;;;;9.77;6.63;;;;;;;8.75;100.00;98876.16;10474405;28;20050;-83
2023/12/24 14:19:20;;;;;;;9.80;7.13;;;;;;;8.82;100.00;98874.56;10483189;28;20435;-82
2023/12/24 14:24:23;;;;;;;10.60;8.38;;;;;;;8.55;100.00;98881.59;10456020;28;20045;-82
2023/12/24 14:29:28;;;;;;;6.57;5.07;;;;;;;8.87;100.00;98874.13;10456882;28;20048;-82
2023/12/24 14:34:33;;;;;;;12.00;6.80;;;;;;;8.81;100.00;98828.22;10467145;28;20449;-81
2023/12/24 14:39:36;;;;;;;7.78;6.80;;;;;;;8.69;100.00;98855.34;10448385;28;20050;-83
2023/12/24 14:44:39;;;;;;;8.18;7.22;;;;;;;8.72;100.00;98863.06;10460716;28;20041;-83
2023/12/24 14:49:44;;;;;;;7.20;5.47;;;;;;;8.64;100.00;98873.69;10450299;28;20049;-83
2023/12/24 14:54:47;;;;;;;5.45;4.75;;;;;;;8.68;100.00;98853.66;10485696;28;20040;-82
2023/12/24 14:59:50;;;;;;;14.30;5.03;;;;;;;8.69;100.00;98858.03;10442819;28;20506;-83
2023/12/24 15:04:55;;;;;;;4.28;3.92;;;;;;;8.55;100.00;98851.31;10466862;28;20033;-82
2023/12/24 15:09:58;;;;;;;3.80;3.50;;;;;;;9.05;100.00;98816.94;10461141;28;20076;-82
2023/12/24 15:15:02;;;;;;;3.55;3.25;;;;;;;8.92;100.00;98856.63;10432304;28;20091;-82
2023/12/24 15:20:09;;;;;;;2.63;2.42;;;;;;;8.74;100.00;98875.31;10444852;28;20045;-81
2023/12/24 15:25:12;;;;;;;2.97;2.47;;;;;;;8.76;100.00;98816.28;10458353;28;20274;-81
2023/12/24 15:30:16;;;;;;;1.85;1.75;;;;;;;8.95;100.00;98842.94;10470813;28;20048;-82
2023/12/24 15:35:21;;;;;;;5.30;3.22;;;;;;;8.79;100.00;98859.66;10448081;28;20132;-83
2023/12/24 15:40:24;;;;;;;2.60;2.40;;;;;;;8.73;100.00;98880.84;10448352;28;20421;-81
2023/12/24 15:45:27;;;;;;;5.63;2.83;;;;;;;8.92;100.00;98887.91;10463829;28;20041;-82
2023/12/24 15:50:32;;;;;;;6.35;5.07;;;;;;;9.03;100.00;98866.28;10452550;28;20067;-82
2023/12/24 15:55:36;;;;;;;4.03;3.55;;;;;;;8.80;100.00;98873.88;10438742;28;20102;-82
2023/12/24 16:00:39;;;;;;;5.80;3.60;;;;;;;8.79;100.00;98910.53;10441713;28;20068;-81
2023/12/24 16:05:43;;;;;;;5.30;4.57;;;;;;;8.96;100.00;98902.69;10462496;28;20398;-83
2023/12/24 16:10:47;;;;;;;5.50;4.22;;;;;;;9.10;100.00;98910.19;10458823;28;20059;-82
2023/12/24 16:15:50;;;;;;;4.88;4.38;;;;;;;9.02;100.00;98881.50;10479725;28;20721;-82
2023/12/24 16:20:54;;;;;;;4.22;3.22;;;;;;;9.15;100.00;98888.31;10457538;28;20082;-83
2023/12/24 16:25:57;;;;;;;5.57;4.93;;;;;;;9.32;100.00;98892.84;10478720;28;20041;-79
2023/12/24 16:31:00;;;;;;;13.65;8.95;;;;;;;9.46;100.00;98868.22;10476163;28;20064;-82
2023/12/24 16:36:07;;;;;;;8.57;7.65;;;;;;;9.27;100.00;98879.94;10469623;28;20045;-83
2023/12/24 16:41:17;;;;;;;6.90;5.95;;;;;;;9.21;100.00;98888.53;10467760;28;20045;-83
2023/12/24 16:46:20;;;;;;;7.50;5.18;;;;;;;9.21;100.00;98901.09;10473426;28;20052;-84
2023/12/24 16:51:25;;;;;;;12.40;9.25;;;;;;;9.33;100.00;98889.19;10476059;28;20049;-82
2023/12/24 16:56:27;;;;;;;8.32;7.22;;;;;;;9.16;100.00;98896.22;10448168;28;20477;-83
2023/12/24 17:01:30;;;;;;;13.10;6.97;;;;;;;9.27;100.00;98893.31;10479253;28;20049;-83
2023/12/24 17:06:35;;;;;;;9.07;5.30;;;;;;;9.13;100.00;98876.91;10456592;28;20044;-83
2023/12/24 17:11:38;;;;;;;5.68;3.97;;;;;;;9.38;100.00;98902.09;10453959;28;20441;-83
2023/12/24 17:16:42;;;;;;;7.57;5.03;;;;;;;9.45;100.00;98871.88;10472189;28;20049;-83
2023/12/24 17:21:46;;;;;;;5.10;4.47;;;;;;;9.39;100.00;98872.50;10476796;28;20051;-83
2023/12/24 17:26:49;;;;;;;5.07;4.22;;;;;;;9.43;100.00;98884.56;10476517;28;20108;-80
2023/12/24 17:31:52;;;;;;;5.25;4.75;;;;;;;9.33;100.00;98877.63;10485512;28;20124;-78
2023/12/24 17:36:56;;;;;;;5.40;4.57;;;;;;;9.35;100.00;98871.13;10467743;28;20045;-81
2023/12/24 17:41:59;;;;;;;6.45;5.85;;;;;;;9.49;100.00;98897.38;10432824;28;20045;-81
2023/12/24 17:47:02;;;;;;;5.50;4.45;;;;;;;9.35;100.00;98889.88;10467103;28;20061;-83
2023/12/24 17:52:08;;;;;;;7.13;5.00;;;;;;;9.29;100.00;98898.50;10480414;28;20063;-83
2023/12/24 17:57:11;;;;;;;6.82;6.13;;;;;;;9.40;100.00;98900.13;10458811;28;20122;-80
2023/12/24 18:02:14;;;;;;;6.80;5.50;;;;;;;9.22;100.00;98889.41;10466759;28;20115;-82
2023/12/24 18:07:18;;;;;;;4.95;4.40;;;;;;;9.50;100.00;98887.50;10477330;28;20037;-81
2023/12/24 18:12:21;;;;;;;3.85;3.45;;;;;;;9.20;100.00;98900.28;10470136;28;20492;-81
2023/12/24 18:17:24;;;;;;;2.70;2.42;;;;;;;9.27;100.00;98881.78;10456648;28;20053;-82
2023/12/24 18:22:29;;;;;;;3.28;3.05;;;;;;;9.39;100.00;98888.56;10464831;28;20047;-82
2023/12/24 18:27:32;;;;;;;3.28;2.97;;;;;;;9.47;100.00;98899.38;10447069;28;20435;-81
2023/12/24 18:32:35;;;;;;;4.50;2.95;;;;;;;9.61;100.00;98894.47;10449208;28;20254;-82
2023/12/24 18:37:40;;;;;;;1.65;1.55;;;;;;;9.36;100.00;98906.81;10452626;28;20072;-80
2023/12/24 18:42:43;;;;;;;1.80;1.70;;;;;;;9.72;100.00;98946.00;10458068;28;20041;-80
2023/12/24 18:47:45;;;;;;;0.95;0.95;;;;;;;9.48;100.00;98935.88;10454114;28;20441;-81
2023/12/24 18:52:50;;;;;;;1.15;1.05;;;;;;;9.62;100.00;98945.22;10441253;28;20056;-80
2023/12/24 18:57:53;;;;;;;1.10;0.98;;;;;;;9.50;100.00;98949.13;10455872;28;20507;-79
2023/12/24 19:02:56;;;;;;;1.38;1.17;;;;;;;9.72;100.00;98947.84;10451304;28;20459;-79
2023/12/24 19:08:01;;;;;;;2.30;1.50;;;;;;;9.53;100.00;98983.69;10456234;28;20048;-80
2023/12/24 19:13:04;;;;;;;2.60;1.05;;;;;;;9.63;100.00;98971.06;10471115;28;20041;-80
2023/12/24 19:18:07;;;;;;;3.50;1.42;;;;;;;9.58;100.00;98946.53;10473203;28;20041;-80
2023/12/24 19:23:12;;;;;;;4.60;1.83;;;;;;;9.78;100.00;98943.69;10455833;28;20049;-81
2023/12/24 19:28:15;;;;;;;2.03;0.98;;;;;;;9.64;100.00;98962.00;10449454;28;20094;-81
2023/12/24 19:33:18;;;;;;;1.23;1.23;;;;;;;9.68;100.00;98946.44;10460877;28;20044;-80
2023/12/24 19:38:23;;;;;;;2.83;1.60;;;;;;;9.75;100.00;98968.16;10472860;28;20071;-80
2023/12/24 19:43:26;;;;;;;2.55;1.23;;;;;;;9.84;100.00;98969.91;10467984;28;20049;-78
2023/12/24 19:48:29;;;;;;;1.50;1.40;;;;;;;9.71;100.00;98962.25;10446985;28;20037;-79
2023/12/24 19:53:33;;;;;;;1.67;1.20;;;;;;;9.63;100.00;98954.97;10430311;28;20036;-80
2023/12/24 19:58:36;;;;;;;2.63;1.20;;;;;;;9.75;100.00;98966.31;10430182;28;20160;-82
2023/12/24 20:03:39;;;;;;;1.73;1.40;;;;;;;9.88;100.00;98984.72;10461229;28;20700;-79
2023/12/24 20:08:44;;;;;;;0.65;0.65;;;;;;;9.77;100.00;98984.94;10470814;28;20121;-80
2023/12/24 20:13:47;;;;;;;1.90;1.05;;;;;;;9.68;100.00;99000.06;10458122;28;20068;-80
2023/12/24 20:18:50;;;;;;;3.45;1.23;;;;;;;9.94;100.00;98990.31;10485331;28;20036;-81
2023/12/24 20:23:54;;;;;;;2.15;1.15;;;;;;;9.72;100.00;99004.16;10468275;28;20041;-81
2023/12/24 20:28:57;;;;;;;4.43;1.00;;;;;;;9.74;100.00;98991.44;10460093;28;20076;-81
2023/12/24 20:34:00;;;;;;;3.65;1.08;;;;;;;9.73;100.00;99011.19;10468195;28;20056;-79
2023/12/24 20:39:07;;;;;;;3.33;1.60;;;;;;;9.85;100.00;99009.97;10482760;28;20416;-80
2023/12/24 20:44:10;;;;;;;5.03;1.33;;;;;;;9.79;100.00;99023.13;10467528;28;20053;-80
2023/12/24 20:49:17;;;;;;;1.70;1.60;;;;;;;9.82;100.00;98991.53;10463927;28;20049;-82
2023/12/24 20:54:21;;;;;;;3.63;1.23;;;;;;;9.99;100.00;99029.25;10482725;28;20059;-81
2023/12/24 20:59:24;;;;;;;2.13;1.35;;;;;;;10.08;100.00;99028.31;10477056;28;20052;-82
2023/12/24 21:04:27;;;;;;;3.83;1.70;;;;;;;9.91;100.00;99033.53;10494882;28;20049;-82
2023/12/24 21:09:32;;;;;;;4.68;1.40;;;;;;;10.05;100.00;99061.66;10473889;28;20047;-81
2023/12/24 21:14:35;;;;;;;4.90;2.08;;;;;;;9.96;100.00;99026.88;10496015;28;20044;-80
2023/12/24 21:19:38;;;;;;;2.53;1.67;;;;;;;10.11;100.00;99041.41;10473103;28;20500;-81
2023/12/24 21:24:43;;;;;;;2.83;1.70;;;;;;;10.26;100.00;99065.88;10473628;28;20079;-82
2023/12/24 21:29:46;;;;;;;4.75;1.50;;;;;;;10.34;100.00;99063.28;10473378;28;20083;-83
2023/12/24 21:34:49;;;;;;;2.65;1.35;;;;;;;9.98;100.00;99047.16;10460356;28;20049;-84
2023/12/24 21:40:17;;;;;;;3.28;2.67;;;;;;;9.57;100.00;99022.59;10486981;28;20508;-82
2023/12/24 21:45:20;;;;;;;3.88;2.30;;;;;;;9.56;100.00;99068.31;10464543;28;20060;-82
2023/12/24 21:50:23;;;;;;;6.38;2.55;;;;;;;9.19;100.00;99074.56;10479515;28;20041;-81
2023/12/24 21:55:28;;;;;;;8.73;3.00;;;;;;;9.57;100.00;99084.25;10464791;28;20049;-82
2023/12/24 22:00:34;;;;;;;8.23;3.50;;;;;;;9.64;100.00;99085.34;10454594;28;20048;-80
2023/12/24 22:05:50;;;;;;;4.68;2.28;;;;;;;9.64;100.00;99079.97;10471493;28;20561;-82
2023/12/24 22:10:55;;;;;;;8.02;2.90;;;;;;;9.43;100.00;99085.56;10488230;28;20045;-80
2023/12/24 22:15:58;;;;;;;8.68;3.25;;;;;;;9.25;100.00;99077.50;10457679;28;20059;-83
2023/12/24 22:21:01;;;;;;;9.27;3.25;;;;;;;9.36;100.00;99102.41;10478146;28;20047;-82
2023/12/24 22:26:08;;;;;;;12.45;4.00;;;;;;;9.34;100.00;99104.41;10469192;28;20037;-82
2023/12/24 22:31:11;;;;;;;13.05;4.60;;;;;;;8.98;100.00;99091.69;10481865;28;20048;-82
2023/12/24 22:36:15;;;;;;;7.85;2.28;;;;;;;9.15;100.00;99084.72;10460360;28;20049;-81
2023/12/24 22:41:21;;;;;;;9.00;2.63;;;;;;;9.16;100.00;99065.00;10484416;28;20057;-81
2023/12/24 22:46:25;;;;;;;4.40;2.80;;;;;;;9.31;100.00;99100.19;10481563;28;20036;-79
2023/12/24 22:51:28;;;;;;;8.57;3.72;;;;;;;9.30;100.00;99103.84;10464606;28;20056;-80
2023/12/24 22:56:32;;;;;;;8.38;2.90;;;;;;;9.39;100.00;99104.81;10477916;28;20045;-80
2023/12/24 23:01:35;;;;;;;6.55;2.55;;;;;;;9.34;100.00;99104.41;10479715;28;20057;-81
2023/12/24 23:06:38;;;;;;;8.75;2.47;;;;;;;9.45;100.00;99117.59;10462643;28;20080;-80
2023/12/24 23:11:43;;;;;;;6.05;2.50;;;;;;;9.54;100.00;99115.88;10478418;28;20079;-78
2023/12/24 23:16:46;;;;;;;5.43;1.77;;;;;;;9.43;100.00;99101.66;10492381;28;20068;-78
2023/12/24 23:21:49;;;;;;;5.82;2.13;;;;;;;9.28;100.00;99124.59;10469027;28;20056;-80
2023/12/24 23:26:53;;;;;;;5.10;2.65;;;;;;;9.16;100.00;99083.75;10467488;28;20090;-80